International Virtual Aviation Organisation

Russian Federation and Kazakhstan MCD

 

Карточка аэропорта UHMA

Внимание!
Информация на этой странице в стадии наполнения.
Если вы не увидели какой-то информации, или заметили неточность - пожалуйста сообщите нам!
Спасибо!
Команда RU-STAFF
Название аэропортаУгольный
Название аэропорта (англ.)Ugolny
Превышение194 ft. (59.1 m.)
Координаты64°44.1', 177°44.28'
Высота перехода1600m
Эшелон переходаQFE>=755mm:FL070; QFE<755=>728:FL080; QFE<728:FL090
Коды ответчика6501-6537
Зона ОрВДМагадан РПИ (UHMM)
Данные METARUHMA 242330Z 19002G09MPS 7000 -SN DRSN SCT012 OVC032 M04/M06 Q0990 R88/39//45 TEMPO 09007G12MPS 4000 -SN DRSN RMK END R01/06008MPS QFE739/0985
Проноз погоды (TAF)UHMA 241938Z 2421/2521 05009G14MPS 1500 SN BLSN SCT005 BKN025 TEMPO 2421/2515 10014G19MPS 0300 +SHSN BLSN BKN005 BKN015CB FM251500 05015G20MPS 0700 +SN BLSN BKN005 TEMPO 2515/2521 10023G28MPS 0300 BLSN VV001
NOTAMshow/hide NOTAM
AWOS   TABLE

Информация о ВПП


Диспетчерские позиции

Позывной Наименование органа УВД Частота
UHMA_APPАнадырь-Подход124.0
UHMA_TWRАнадырь-Старт124.0



Спутниковое изображение